createdAt,value
2023-01-19T00:00:33.193Z,98007.03
2023-01-19T00:02:59.990Z,98016.06
2023-01-19T00:05:26.812Z,98011.72
2023-01-19T00:07:53.572Z,98003.56
2023-01-19T00:10:20.324Z,98006.25
2023-01-19T00:12:47.082Z,98008.88
2023-01-19T00:15:13.829Z,98009.66
2023-01-19T00:17:41.169Z,98004.69
2023-01-19T00:20:09.775Z,98012.06
2023-01-19T00:22:36.524Z,98014.34
2023-01-19T00:25:03.787Z,98008.69
2023-01-19T00:27:34.805Z,98002.31
2023-01-19T00:30:02.222Z,98003.81
2023-01-19T00:32:29.038Z,98008.28
2023-01-19T00:34:55.807Z,98004.03
2023-01-19T00:37:22.878Z,98004.25
2023-01-19T00:39:49.644Z,97998.09
2023-01-19T00:42:34.794Z,98002.31
2023-01-19T00:45:01.536Z,97996.03
2023-01-19T00:47:28.293Z,98000.91
2023-01-19T00:49:55.449Z,98005.78
2023-01-19T00:52:22.085Z,98000.25
2023-01-19T00:54:48.820Z,98003.59
2023-01-19T00:57:16.027Z,98002.19
2023-01-19T00:59:43.233Z,97990.16
2023-01-19T01:02:11.468Z,97991.44
2023-01-19T01:04:38.570Z,97996.66
2023-01-19T01:07:05.362Z,97993.63
2023-01-19T01:09:32.191Z,97991.91
2023-01-19T01:11:59.242Z,97991.03
2023-01-19T01:14:26.916Z,97988.13
2023-01-19T01:16:53.929Z,97976.94
2023-01-19T01:19:21.481Z,97983.88
2023-01-19T01:21:48.296Z,97983.03
2023-01-19T01:24:15.068Z,97980.31
2023-01-19T01:26:41.844Z,97984.56
2023-01-19T01:29:08.840Z,98000.41
2023-01-19T01:31:35.602Z,97996.25
2023-01-19T01:34:02.406Z,97999.09
2023-01-19T01:36:32.132Z,97996.94
2023-01-19T01:38:59.758Z,97989.31
2023-01-19T01:41:27.544Z,97999.75
2023-01-19T01:43:58.582Z,97994.31
2023-01-19T01:46:26.886Z,97991.69
2023-01-19T01:49:06.112Z,97995.63
2023-01-19T01:51:52.780Z,97997.78
2023-01-19T01:54:28.284Z,97998.66
2023-01-19T01:56:57.911Z,98001.81
2023-01-19T01:59:34.859Z,98006.78
2023-01-19T02:02:28.065Z,98013.09
2023-01-19T02:04:58.720Z,98022.75
2023-01-19T02:08:06.768Z,98032.41
2023-01-19T02:10:52.099Z,98041.75
2023-01-19T02:13:22.463Z,98040.97
2023-01-19T02:15:52.676Z,98028.63
2023-01-19T02:18:21.510Z,98026.31
2023-01-19T02:20:52.934Z,98000.19
2023-01-19T02:23:39.466Z,97976.19
2023-01-19T02:26:09.456Z,97983.88
2023-01-19T02:28:39.226Z,97982.81
2023-01-19T02:31:06.414Z,97991.28
2023-01-19T02:33:33.571Z,98005.16
2023-01-19T02:36:00.861Z,98014.94
2023-01-19T02:38:28.542Z,98027.06
2023-01-19T02:40:59.682Z,98007.31
2023-01-19T02:43:27.806Z,97999.75
2023-01-19T02:45:54.682Z,97997.56
2023-01-19T02:48:21.670Z,98003.63
2023-01-19T02:51:00.946Z,97995.38
2023-01-19T02:53:53.484Z,97980.88
2023-01-19T02:57:01.575Z,97974.22
2023-01-19T02:59:58.581Z,97983.44
2023-01-19T03:02:25.342Z,97994.28
2023-01-19T03:05:43.221Z,98010.78
2023-01-19T03:08:15.115Z,97997.13
2023-01-19T03:10:51.207Z,97999.50
2023-01-19T03:13:26.378Z,97983.75
2023-01-19T03:15:56.793Z,97990.38
2023-01-19T03:18:26.383Z,98007.06
2023-01-19T03:20:56.678Z,98021.06
2023-01-19T03:23:26.873Z,98025.84
2023-01-19T03:25:54.711Z,98032.41
2023-01-19T03:28:22.884Z,98045.00
2023-01-19T03:30:54.675Z,98029.94
2023-01-19T03:33:33.178Z,98003.16
2023-01-19T03:36:05.460Z,97975.59
2023-01-19T03:38:43.120Z,97959.03
2023-01-19T03:41:13.642Z,97949.81
2023-01-19T03:43:40.905Z,97955.22
2023-01-19T03:46:07.927Z,97948.41
2023-01-19T03:48:34.740Z,97943.94
2023-01-19T03:51:07.248Z,97945.56
2023-01-19T03:53:34.338Z,97953.47
2023-01-19T03:56:01.232Z,97971.28
2023-01-19T03:58:28.419Z,97974.53
2023-01-19T04:00:55.141Z,97966.03
2023-01-19T04:03:21.926Z,97979.16
2023-01-19T04:05:49.306Z,97996.59
2023-01-19T04:08:16.020Z,98012.88
2023-01-19T04:10:42.680Z,98008.63
2023-01-19T04:13:09.399Z,97991.91
2023-01-19T04:15:36.216Z,97994.19
2023-01-19T04:18:03.030Z,98011.44
2023-01-19T04:20:29.801Z,98016.13
2023-01-19T04:23:01.177Z,98011.69
2023-01-19T04:25:28.733Z,98011.56
2023-01-19T04:27:57.927Z,98013.41
2023-01-19T04:30:25.122Z,98009.56
2023-01-19T04:32:51.937Z,98004.19
2023-01-19T04:35:18.748Z,98002.16
2023-01-19T04:37:45.712Z,98008.53
2023-01-19T04:40:12.637Z,98004.41
2023-01-19T04:42:43.236Z,98005.28
2023-01-19T04:45:10.515Z,97996.41
2023-01-19T04:47:37.469Z,97983.41
2023-01-19T04:50:05.865Z,97976.03
2023-01-19T04:52:36.186Z,97962.16
2023-01-19T04:55:04.213Z,97959.97
2023-01-19T04:57:30.955Z,97974.41
2023-01-19T04:59:58.423Z,97991.84
2023-01-19T05:02:25.785Z,97988.28
2023-01-19T05:04:52.561Z,98007.38
2023-01-19T05:07:19.320Z,98008.38
2023-01-19T05:09:46.059Z,98025.50
2023-01-19T05:12:12.758Z,98027.03
2023-01-19T05:14:39.616Z,98018.34
2023-01-19T05:17:06.399Z,98004.25
2023-01-19T05:19:33.104Z,98003.06
2023-01-19T05:21:59.817Z,98006.81
2023-01-19T05:24:26.578Z,98023.31
2023-01-19T05:26:53.317Z,98032.19
2023-01-19T05:29:20.105Z,98035.25
2023-01-19T05:31:46.956Z,98039.13
2023-01-19T05:34:14.542Z,98049.75
2023-01-19T05:36:41.802Z,98047.28
2023-01-19T05:39:08.582Z,98050.78
2023-01-19T05:41:36.119Z,98052.09
2023-01-19T05:44:02.959Z,98054.81
2023-01-19T05:46:29.927Z,98053.28
2023-01-19T05:48:56.874Z,98049.78
2023-01-19T05:51:23.890Z,98045.88
2023-01-19T05:53:50.700Z,98042.84
2023-01-19T05:56:17.439Z,98025.25
2023-01-19T05:58:44.219Z,98027.88
2023-01-19T06:01:11.214Z,98031.69
2023-01-19T06:03:39.556Z,98010.09
2023-01-19T06:06:06.518Z,97994.03
2023-01-19T06:08:33.294Z,98005.09
2023-01-19T06:11:00.456Z,98002.91
2023-01-19T06:13:27.213Z,98004.66
2023-01-19T06:16:00.925Z,98012.25
2023-01-19T06:18:28.412Z,98000.53
2023-01-19T06:20:58.741Z,97994.66
2023-01-19T06:23:30.985Z,98000.88
2023-01-19T06:25:58.000Z,98005.22
2023-01-19T06:28:25.314Z,98002.19
2023-01-19T06:30:53.590Z,97995.25
2023-01-19T06:33:20.759Z,97992.28
2023-01-19T06:35:48.891Z,97998.28
2023-01-19T06:38:18.531Z,97991.47
2023-01-19T06:40:46.627Z,98008.25
2023-01-19T06:43:13.391Z,98025.97
2023-01-19T06:45:40.126Z,98036.41
2023-01-19T06:48:08.641Z,98033.34
2023-01-19T06:50:35.634Z,98046.28
2023-01-19T06:53:03.088Z,98047.69
2023-01-19T06:55:32.772Z,98055.16
2023-01-19T06:58:01.371Z,98038.16
2023-01-19T07:00:29.927Z,98036.94
2023-01-19T07:02:57.997Z,98030.25
2023-01-19T07:05:25.300Z,98023.06
2023-01-19T07:07:53.908Z,98016.22
2023-01-19T07:10:21.423Z,98011.66
2023-01-19T07:12:48.548Z,98006.78
2023-01-19T07:15:16.909Z,97997.44
2023-01-19T07:17:43.965Z,98002.53
2023-01-19T07:20:14.209Z,97996.25
2023-01-19T07:22:41.966Z,98020.75
2023-01-19T07:25:14.004Z,98030.69
2023-01-19T07:27:40.793Z,98036.34
2023-01-19T07:30:08.680Z,98044.84
2023-01-19T07:32:36.046Z,98040.63
2023-01-19T07:35:03.234Z,98038.13
2023-01-19T07:37:31.664Z,98041.28
2023-01-19T07:39:58.556Z,98054.41
2023-01-19T07:42:26.146Z,98052.25
2023-01-19T07:44:53.562Z,98056.50
2023-01-19T07:47:20.608Z,98057.03
2023-01-19T07:49:47.438Z,98060.09
2023-01-19T07:52:14.276Z,98060.19
2023-01-19T07:54:41.712Z,98064.44
2023-01-19T07:57:08.425Z,98069.97
2023-01-19T07:59:35.202Z,98064.84
2023-01-19T08:02:12.372Z,98067.56
2023-01-19T08:04:45.430Z,98066.81
2023-01-19T08:07:43.833Z,98053.34
2023-01-19T08:10:28.483Z,98056.81
2023-01-19T08:12:59.343Z,98067.69
2023-01-19T08:15:38.073Z,98063.34
2023-01-19T08:18:11.884Z,98058.56
2023-01-19T08:20:42.801Z,98047.16
2023-01-19T08:23:11.775Z,98053.47
2023-01-19T08:26:23.117Z,98050.53
2023-01-19T08:29:08.924Z,98047.59
2023-01-19T08:31:37.778Z,98046.72
2023-01-19T08:34:21.390Z,98041.66
2023-01-19T08:37:14.455Z,98035.88
2023-01-19T08:39:48.028Z,98048.72
2023-01-19T08:42:22.672Z,98045.75
2023-01-19T08:44:58.103Z,98051.41
2023-01-19T08:47:35.525Z,98051.84
2023-01-19T08:50:06.821Z,98061.59
2023-01-19T08:52:44.542Z,98072.91
2023-01-19T08:55:12.191Z,98078.09
2023-01-19T08:57:38.967Z,98069.22
2023-01-19T09:00:07.923Z,98067.06
2023-01-19T09:02:34.966Z,98064.09
2023-01-19T09:05:01.754Z,98055.09
2023-01-19T09:07:30.557Z,98058.47
2023-01-19T09:09:59.232Z,98064.09
2023-01-19T09:12:26.036Z,98057.81
2023-01-19T09:14:52.816Z,98058.13
2023-01-19T09:17:19.581Z,98057.38
2023-01-19T09:19:46.338Z,98060.97
2023-01-19T09:22:13.185Z,98066.19
2023-01-19T09:24:41.129Z,98065.75
2023-01-19T09:27:08.977Z,98075.50
2023-01-19T09:29:36.525Z,98062.06
2023-01-19T09:32:03.431Z,98064.00
2023-01-19T09:34:31.406Z,98058.38
2023-01-19T09:36:58.257Z,98054.91
2023-01-19T09:39:25.096Z,98051.94
2023-01-19T09:42:16.019Z,98053.38
2023-01-19T09:44:43.880Z,98056.06
2023-01-19T09:47:15.241Z,98060.31
2023-01-19T09:49:46.495Z,98058.13
2023-01-19T09:52:14.245Z,98057.69
2023-01-19T09:54:59.414Z,98044.47
2023-01-19T09:57:27.469Z,98049.00
2023-01-19T09:59:59.527Z,98051.19
2023-01-19T10:02:46.444Z,98050.31
2023-01-19T10:05:40.253Z,98061.59
2023-01-19T10:08:31.860Z,98061.34
2023-01-19T10:10:58.608Z,98055.91
2023-01-19T10:13:47.425Z,98064.69
2023-01-19T10:16:49.548Z,98064.91
2023-01-19T10:19:19.023Z,98066.41
2023-01-19T10:21:46.755Z,98065.41
2023-01-19T10:24:24.068Z,98066.06
2023-01-19T10:26:53.265Z,98063.03
2023-01-19T10:29:29.124Z,98058.69
2023-01-19T10:32:14.803Z,98063.91
2023-01-19T10:34:42.046Z,98059.22
2023-01-19T10:37:27.759Z,98070.84
2023-01-19T10:40:01.294Z,98064.28
2023-01-19T10:42:31.322Z,98064.75
2023-01-19T10:44:58.301Z,98072.63
2023-01-19T10:47:32.382Z,98066.00
2023-01-19T10:49:59.255Z,98072.56
2023-01-19T10:52:39.838Z,98072.66
2023-01-19T10:56:22.997Z,98082.31
2023-01-19T11:21:06.439Z,98095.03
2023-01-19T11:23:47.075Z,98090.56
2023-01-19T11:26:35.543Z,98092.53
2023-01-19T11:29:03.491Z,98082.13
2023-01-19T11:31:31.509Z,98085.59
2023-01-19T11:34:03.801Z,98079.31
2023-01-19T11:36:37.070Z,98081.41
2023-01-19T11:39:21.330Z,98083.88
2023-01-19T11:41:51.201Z,98085.84
2023-01-19T11:44:27.106Z,98076.97
2023-01-19T11:46:57.179Z,98087.09
2023-01-19T11:49:44.189Z,98089.72
2023-01-19T11:52:24.519Z,98094.59
2023-01-19T11:54:59.555Z,98098.28
2023-01-19T11:57:27.270Z,98092.56
2023-01-19T12:00:03.470Z,98101.56
2023-01-19T12:02:43.694Z,98098.66
2023-01-19T12:05:15.197Z,98099.81
2023-01-19T12:07:43.683Z,98113.44
2023-01-19T12:10:27.099Z,98116.50
2023-01-19T12:12:53.981Z,98124.50
2023-01-19T12:15:31.736Z,98127.66
2023-01-19T12:18:00.916Z,98124.16
2023-01-19T12:20:52.814Z,98123.59
2023-01-19T12:23:30.242Z,98130.34
2023-01-19T12:26:16.445Z,98122.94
2023-01-19T12:28:46.619Z,98135.50
2023-01-19T12:31:18.357Z,98139.16
2023-01-19T12:33:45.367Z,98144.59
2023-01-19T12:36:38.716Z,98140.56
2023-01-19T12:39:08.139Z,98151.63
2023-01-19T12:41:35.866Z,98148.03
2023-01-19T12:44:11.991Z,98158.09
2023-01-19T12:46:39.063Z,98153.66
2023-01-19T12:49:14.513Z,98161.47
2023-01-19T12:51:41.709Z,98171.44
2023-01-19T12:54:16.337Z,98172.22
2023-01-19T12:56:43.121Z,98176.00
2023-01-19T12:59:24.166Z,98181.97
2023-01-19T13:02:25.603Z,98178.16
2023-01-19T13:05:23.755Z,98181.84
2023-01-19T13:08:02.808Z,98184.81
2023-01-19T13:11:00.805Z,98185.28
2023-01-19T13:13:30.809Z,98186.78
2023-01-19T13:16:27.476Z,98202.78
2023-01-19T13:19:06.436Z,98204.31
2023-01-19T13:21:34.537Z,98221.44
2023-01-19T13:24:06.377Z,98223.53
2023-01-19T13:26:35.511Z,98222.84
2023-01-19T13:29:05.119Z,98230.97
2023-01-19T13:31:36.506Z,98244.31
2023-01-19T13:34:04.073Z,98248.63
2023-01-19T13:36:35.952Z,98260.09
2023-01-19T13:39:05.641Z,98261.97
2023-01-19T13:41:38.213Z,98270.16
2023-01-19T13:44:10.735Z,98265.25
2023-01-19T13:46:38.693Z,98270.03
2023-01-19T13:49:17.804Z,98269.25
2023-01-19T13:51:45.094Z,98282.69
2023-01-19T13:54:17.265Z,98279.66
2023-01-19T13:56:50.039Z,98279.66
2023-01-19T13:59:16.890Z,98292.19
2023-01-19T14:01:46.029Z,98299.56
2023-01-19T14:04:29.867Z,98304.78
2023-01-19T14:06:58.967Z,98308.44
2023-01-19T14:09:25.720Z,98309.25
2023-01-19T14:12:14.654Z,98309.69
2023-01-19T14:14:42.928Z,98311.06
2023-01-19T14:17:25.156Z,98310.94
2023-01-19T14:19:55.533Z,98303.47
2023-01-19T14:22:43.612Z,98296.59
2023-01-19T14:25:35.989Z,98302.97
2023-01-19T14:28:28.629Z,98285.53
2023-01-19T14:31:00.703Z,98282.78
2023-01-19T14:33:51.977Z,98284.34
2023-01-19T14:36:33.243Z,98291.88
2023-01-19T14:39:01.205Z,98298.94
2023-01-19T14:41:34.111Z,98318.06
2023-01-19T14:44:01.013Z,98320.03
2023-01-19T14:46:28.218Z,98327.25
2023-01-19T14:49:03.527Z,98332.75
2023-01-19T14:51:30.875Z,98330.16
2023-01-19T14:53:59.915Z,98324.38
2023-01-19T14:56:29.519Z,98318.69
2023-01-19T14:58:58.167Z,98330.78
2023-01-19T15:01:28.494Z,98344.38
2023-01-19T15:03:58.508Z,98351.13
2023-01-19T15:06:26.169Z,98355.25
2023-01-19T15:08:53.661Z,98362.72
2023-01-19T15:11:27.516Z,98374.50
2023-01-19T15:13:55.456Z,98372.97
2023-01-19T15:16:23.526Z,98385.50
2023-01-19T15:18:50.467Z,98404.31
2023-01-19T15:21:26.762Z,98393.16
2023-01-19T15:23:58.323Z,98388.41
2023-01-19T15:26:26.506Z,98386.44
2023-01-19T15:28:53.532Z,98377.72
2023-01-19T15:31:24.624Z,98380.63
2023-01-19T15:33:51.525Z,98397.88
2023-01-19T15:36:20.367Z,98400.63
2023-01-19T15:38:47.677Z,98393.28
2023-01-19T15:41:15.436Z,98409.16
2023-01-19T15:43:42.228Z,98404.44
2023-01-19T15:46:11.448Z,98397.88
2023-01-19T15:48:38.185Z,98404.59
2023-01-19T15:51:05.625Z,98404.44
2023-01-19T15:53:32.385Z,98416.81
2023-01-19T15:55:59.134Z,98419.09
2023-01-19T15:58:26.659Z,98423.50
2023-01-19T16:00:55.357Z,98431.78
2023-01-19T16:03:22.409Z,98433.47
2023-01-19T16:05:49.398Z,98434.22
2023-01-19T16:08:16.259Z,98436.34
2023-01-19T16:10:43.458Z,98463.84
2023-01-19T16:13:11.672Z,98465.38
2023-01-19T16:15:39.137Z,98459.25
2023-01-19T16:18:06.588Z,98463.84
2023-01-19T16:20:33.568Z,98479.00
2023-01-19T16:23:13.765Z,98477.63
2023-01-19T16:25:41.849Z,98492.25
2023-01-19T16:28:09.112Z,98500.38
2023-01-19T16:30:35.958Z,98502.66
2023-01-19T16:33:02.744Z,98511.53
2023-01-19T16:35:29.593Z,98513.03
2023-01-19T16:37:56.502Z,98517.00
2023-01-19T16:40:23.304Z,98516.72
2023-01-19T16:42:50.678Z,98526.22
2023-01-19T16:45:17.449Z,98530.16
2023-01-19T16:47:50.450Z,98543.31
2023-01-19T16:50:17.529Z,98556.47
2023-01-19T16:52:44.815Z,98550.19
2023-01-19T16:55:11.708Z,98550.03
2023-01-19T16:57:41.403Z,98552.47
2023-01-19T17:00:10.519Z,98547.13
2023-01-19T17:02:37.679Z,98561.13
2023-01-19T17:05:04.957Z,98557.44
2023-01-19T17:07:32.043Z,98567.53
2023-01-19T17:10:00.025Z,98557.59
2023-01-19T17:12:28.058Z,98572.72
2023-01-19T17:14:55.040Z,98564.94
2023-01-19T17:17:22.125Z,98568.59
2023-01-19T17:19:48.985Z,98571.91
2023-01-19T17:22:15.677Z,98578.19
2023-01-19T17:24:43.313Z,98595.03
2023-01-19T17:27:10.361Z,98591.28
2023-01-19T17:29:37.345Z,98597.25
2023-01-19T17:32:04.533Z,98589.78
2023-01-19T17:34:32.010Z,98601.41
2023-01-19T17:37:03.044Z,98588.59
2023-01-19T17:39:30.074Z,98592.25
2023-01-19T17:41:57.097Z,98589.97
2023-01-19T17:44:24.088Z,98606.13
2023-01-19T17:46:51.044Z,98589.63
2023-01-19T17:49:21.448Z,98606.13
2023-01-19T17:51:53.537Z,98594.81
2023-01-19T17:54:20.701Z,98596.69
2023-01-19T17:56:47.763Z,98594.22
2023-01-19T17:59:14.753Z,98602.44
2023-01-19T18:01:42.870Z,98608.25
2023-01-19T18:04:10.206Z,98621.22
2023-01-19T18:06:37.976Z,98613.28
2023-01-19T18:09:07.315Z,98622.13
2023-01-19T18:11:34.795Z,98629.63
2023-01-19T18:14:02.167Z,98630.22
2023-01-19T18:16:30.151Z,98643.06
2023-01-19T18:18:58.303Z,98638.63
2023-01-19T18:21:28.215Z,98630.56
2023-01-19T18:24:12.934Z,98648.84
2023-01-19T18:26:39.983Z,98645.97
2023-01-19T18:29:06.974Z,98638.28
2023-01-19T18:31:34.031Z,98632.66
2023-01-19T18:34:01.064Z,98637.16
2023-01-19T18:36:28.418Z,98635.63
2023-01-19T18:38:55.519Z,98637.16
2023-01-19T18:41:22.617Z,98648.16
2023-01-19T18:43:49.726Z,98645.56
2023-01-19T18:46:16.844Z,98641.41
2023-01-19T18:48:43.819Z,98635.75
2023-01-19T18:51:13.072Z,98634.22
2023-01-19T18:53:40.376Z,98625.59
2023-01-19T18:56:07.968Z,98635.53
2023-01-19T18:58:37.293Z,98643.88
2023-01-19T19:01:05.006Z,98639.16
2023-01-19T19:03:32.107Z,98631.84
2023-01-19T19:06:03.428Z,98640.56
2023-01-19T19:08:30.617Z,98645.31
2023-01-19T19:10:57.583Z,98647.59
2023-01-19T19:13:25.345Z,98646.19
2023-01-19T19:15:52.676Z,98647.72
2023-01-19T19:18:19.928Z,98643.41
2023-01-19T19:20:47.009Z,98638.34
2023-01-19T19:23:13.887Z,98657.44
2023-01-19T19:25:40.870Z,98663.22
2023-01-19T19:28:08.588Z,98664.75
2023-01-19T19:30:37.930Z,98680.50
2023-01-19T19:33:05.129Z,98678.19
2023-01-19T19:35:32.112Z,98680.31
2023-01-19T19:37:59.557Z,98694.44
2023-01-19T19:40:27.714Z,98694.56
2023-01-19T19:42:55.837Z,98704.66
2023-01-19T19:45:24.803Z,98700.06
2023-01-19T19:47:51.745Z,98717.16
2023-01-19T19:50:19.252Z,98714.94
2023-01-19T19:52:46.325Z,98725.81
2023-01-19T19:55:13.650Z,98734.03
2023-01-19T19:57:40.831Z,98727.34
2023-01-19T20:00:08.800Z,98735.88
2023-01-19T20:02:36.619Z,98719.66
2023-01-19T20:05:04.545Z,98734.72
2023-01-19T20:07:31.778Z,98736.84
2023-01-19T20:09:58.950Z,98730.13
2023-01-19T20:12:26.017Z,98726.09
2023-01-19T20:14:53.185Z,98734.34
2023-01-19T20:17:20.787Z,98736.66
2023-01-19T20:19:49.020Z,98731.31
2023-01-19T20:22:16.331Z,98732.25
2023-01-19T20:24:43.039Z,98731.19
2023-01-19T20:27:10.244Z,98736.84
2023-01-19T20:29:37.308Z,98734.84
2023-01-19T20:32:04.117Z,98733.03
2023-01-19T20:34:33.322Z,98736.84
2023-01-19T20:37:01.753Z,98747.22
2023-01-19T20:39:33.084Z,98741.09
2023-01-19T20:42:00.758Z,98745.50
2023-01-19T20:44:27.811Z,98742.63
2023-01-19T20:46:55.269Z,98748.47
2023-01-19T20:49:22.703Z,98746.19
2023-01-19T20:51:51.903Z,98749.31
2023-01-19T20:54:26.832Z,98750.28
2023-01-19T20:56:54.107Z,98747.50
2023-01-19T20:59:21.353Z,98757.22
2023-01-19T21:01:48.951Z,98762.50
2023-01-19T21:04:17.512Z,98761.63
2023-01-19T21:06:44.569Z,98753.16
2023-01-19T21:09:11.449Z,98758.72
2023-01-19T21:11:39.664Z,98755.66
2023-01-19T21:14:07.144Z,98765.00
2023-01-19T21:16:36.363Z,98759.31
2023-01-19T21:19:04.481Z,98755.75
2023-01-19T21:21:32.871Z,98766.03
2023-01-19T21:24:02.789Z,98767.56
2023-01-19T21:26:30.290Z,98762.56
2023-01-19T21:29:01.252Z,98757.03
2023-01-19T21:31:28.474Z,98753.34
2023-01-19T21:33:56.504Z,98759.88
2023-01-19T21:36:24.575Z,98759.31
2023-01-19T21:38:52.314Z,98755.75
2023-01-19T21:41:19.162Z,98764.03
2023-01-19T21:43:46.171Z,98771.22
2023-01-19T21:46:30.433Z,98780.06
2023-01-19T21:48:58.132Z,98787.00
2023-01-19T21:51:24.978Z,98791.59
2023-01-19T21:53:59.378Z,98800.03
2023-01-19T21:56:28.103Z,98812.16
2023-01-19T21:58:56.211Z,98844.25
2023-01-19T22:01:26.318Z,98869.13
2023-01-19T22:03:54.720Z,98889.91
2023-01-19T22:06:22.115Z,98890.75
2023-01-19T22:08:48.938Z,98888.63
2023-01-19T22:11:18.765Z,98866.25
2023-01-19T22:13:45.680Z,98848.47
2023-01-19T22:16:14.432Z,98840.78
2023-01-19T22:18:43.400Z,98832.31
2023-01-19T22:21:36.216Z,98825.22
2023-01-19T22:24:04.256Z,98837.91
2023-01-19T22:26:33.929Z,98842.50
2023-01-19T22:29:01.606Z,98852.03
2023-01-19T22:31:29.423Z,98861.16
2023-01-19T22:33:56.760Z,98852.81
2023-01-19T22:36:31.869Z,98843.66
2023-01-19T22:39:00.605Z,98854.22
2023-01-19T22:41:32.867Z,98847.50
2023-01-19T22:44:01.773Z,98852.88
2023-01-19T22:46:31.201Z,98843.84
2023-01-19T22:48:58.921Z,98842.50
2023-01-19T22:51:26.367Z,98832.88
2023-01-19T22:53:53.260Z,98830.28
2023-01-19T22:56:22.138Z,98814.34
2023-01-19T22:58:49.364Z,98811.38
2023-01-19T23:01:20.317Z,98808.97
2023-01-19T23:03:47.372Z,98820.91
2023-01-19T23:06:19.721Z,98822.16
2023-01-19T23:08:46.544Z,98824.47
2023-01-19T23:11:18.290Z,98813.28
2023-01-19T23:13:45.484Z,98802.91
2023-01-19T23:16:13.112Z,98800.00
2023-01-19T23:18:40.786Z,98791.72
2023-01-19T23:21:13.125Z,98796.53
2023-01-19T23:23:40.174Z,98791.78
2023-01-19T23:26:13.003Z,98789.56
2023-01-19T23:28:40.015Z,98783.03
2023-01-19T23:31:36.522Z,98779.94
2023-01-19T23:34:05.733Z,98790.09
2023-01-19T23:36:34.537Z,98797.59
2023-01-19T23:39:06.635Z,98798.63
2023-01-19T23:41:36.488Z,98797.59
2023-01-19T23:44:03.544Z,98803.59
2023-01-19T23:46:30.487Z,98817.22
2023-01-19T23:48:57.482Z,98820.44
2023-01-19T23:51:26.935Z,98821.63
2023-01-19T23:53:53.909Z,98842.94
2023-01-19T23:56:25.652Z,98845.69
2023-01-19T23:59:03.947Z,98850.22
